sensor_id;sensor_type;location;lat;lon;timestamp;P1;durP1;ratioP1;P2;durP2;ratioP2
21777;SDS011;11050;52.222;20.916;2023-05-17T00:00:15;15.43;;;12.80;;
21777;SDS011;11050;52.222;20.916;2023-05-17T00:02:42;16.02;;;14.32;;
21777;SDS011;11050;52.222;20.916;2023-05-17T00:05:07;17.67;;;14.90;;
21777;SDS011;11050;52.222;20.916;2023-05-17T00:07:35;18.15;;;14.52;;
21777;SDS011;11050;52.222;20.916;2023-05-17T00:10:01;18.70;;;15.73;;
21777;SDS011;11050;52.222;20.916;2023-05-17T00:12:28;15.70;;;14.07;;
21777;SDS011;11050;52.222;20.916;2023-05-17T00:14:53;18.33;;;15.38;;
21777;SDS011;11050;52.222;20.916;2023-05-17T00:17:19;18.50;;;15.25;;
21777;SDS011;11050;52.222;20.916;2023-05-17T00:19:45;22.98;;;16.17;;
21777;SDS011;11050;52.222;20.916;2023-05-17T00:22:10;18.40;;;16.13;;
21777;SDS011;11050;52.222;20.916;2023-05-17T00:24:36;18.38;;;15.25;;
21777;SDS011;11050;52.222;20.916;2023-05-17T00:27:02;18.27;;;14.73;;
21777;SDS011;11050;52.222;20.916;2023-05-17T00:29:28;17.73;;;15.82;;
21777;SDS011;11050;52.222;20.916;2023-05-17T00:31:53;17.13;;;15.02;;
21777;SDS011;11050;52.222;20.916;2023-05-17T00:34:19;18.73;;;14.70;;
21777;SDS011;11050;52.222;20.916;2023-05-17T00:36:44;16.27;;;14.48;;
21777;SDS011;11050;52.222;20.916;2023-05-17T00:39:10;18.90;;;16.38;;
21777;SDS011;11050;52.222;20.916;2023-05-17T00:41:36;17.50;;;14.85;;
21777;SDS011;11050;52.222;20.916;2023-05-17T00:44:01;19.95;;;14.85;;
21777;SDS011;11050;52.222;20.916;2023-05-17T00:46:27;17.73;;;14.85;;
21777;SDS011;11050;52.222;20.916;2023-05-17T00:48:53;18.70;;;16.13;;
21777;SDS011;11050;52.222;20.916;2023-05-17T00:51:20;18.75;;;16.75;;
21777;SDS011;11050;52.222;20.916;2023-05-17T00:53:46;19.27;;;15.25;;
21777;SDS011;11050;52.222;20.916;2023-05-17T00:56:12;20.35;;;16.65;;
21777;SDS011;11050;52.222;20.916;2023-05-17T00:58:38;19.77;;;15.68;;
21777;SDS011;11050;52.222;20.916;2023-05-17T01:01:05;19.90;;;14.80;;
21777;SDS011;11050;52.222;20.916;2023-05-17T01:03:31;18.38;;;14.90;;
21777;SDS011;11050;52.222;20.916;2023-05-17T01:05:57;18.60;;;15.05;;
21777;SDS011;11050;52.222;20.916;2023-05-17T01:08:23;17.23;;;14.15;;
21777;SDS011;11050;52.222;20.916;2023-05-17T01:10:54;19.98;;;14.88;;
21777;SDS011;11050;52.222;20.916;2023-05-17T01:16:33;16.73;;;14.48;;
21777;SDS011;11050;52.222;20.916;2023-05-17T01:22:42;15.93;;;13.93;;
21777;SDS011;11050;52.222;20.916;2023-05-17T01:28:40;15.73;;;13.65;;
21777;SDS011;11050;52.222;20.916;2023-05-17T01:31:11;17.13;;;14.40;;
21777;SDS011;11050;52.222;20.916;2023-05-17T01:33:38;16.13;;;14.13;;
21777;SDS011;11050;52.222;20.916;2023-05-17T01:36:05;15.50;;;13.75;;
21777;SDS011;11050;52.222;20.916;2023-05-17T01:38:31;16.10;;;13.07;;
21777;SDS011;11050;52.222;20.916;2023-05-17T01:44:22;17.15;;;13.95;;
21777;SDS011;11050;52.222;20.916;2023-05-17T01:49:43;16.88;;;14.27;;
21777;SDS011;11050;52.222;20.916;2023-05-17T01:52:28;14.57;;;13.00;;
21777;SDS011;11050;52.222;20.916;2023-05-17T01:55:08;17.13;;;13.48;;
21777;SDS011;11050;52.222;20.916;2023-05-17T02:00:14;14.93;;;13.30;;
21777;SDS011;11050;52.222;20.916;2023-05-17T02:02:43;16.35;;;13.73;;
21777;SDS011;11050;52.222;20.916;2023-05-17T02:05:09;16.77;;;13.02;;
21777;SDS011;11050;52.222;20.916;2023-05-17T02:07:35;17.52;;;13.25;;
21777;SDS011;11050;52.222;20.916;2023-05-17T02:10:00;15.25;;;13.65;;
21777;SDS011;11050;52.222;20.916;2023-05-17T02:12:27;18.65;;;14.82;;
21777;SDS011;11050;52.222;20.916;2023-05-17T02:14:53;16.67;;;14.45;;
21777;SDS011;11050;52.222;20.916;2023-05-17T02:17:18;18.33;;;14.85;;
21777;SDS011;11050;52.222;20.916;2023-05-17T02:19:44;16.67;;;14.88;;
21777;SDS011;11050;52.222;20.916;2023-05-17T02:22:10;18.67;;;15.43;;
21777;SDS011;11050;52.222;20.916;2023-05-17T02:24:35;17.58;;;15.68;;
21777;SDS011;11050;52.222;20.916;2023-05-17T02:27:01;17.67;;;15.77;;
21777;SDS011;11050;52.222;20.916;2023-05-17T02:29:27;18.92;;;15.75;;
21777;SDS011;11050;52.222;20.916;2023-05-17T02:31:53;18.40;;;15.65;;
21777;SDS011;11050;52.222;20.916;2023-05-17T02:34:19;21.08;;;17.25;;
21777;SDS011;11050;52.222;20.916;2023-05-17T02:36:44;19.70;;;16.02;;
21777;SDS011;11050;52.222;20.916;2023-05-17T02:39:10;20.58;;;17.25;;
21777;SDS011;11050;52.222;20.916;2023-05-17T02:41:36;18.35;;;16.35;;
21777;SDS011;11050;52.222;20.916;2023-05-17T02:44:02;21.48;;;18.42;;
21777;SDS011;11050;52.222;20.916;2023-05-17T02:46:28;22.92;;;18.48;;
21777;SDS011;11050;52.222;20.916;2023-05-17T02:48:53;22.58;;;18.05;;
21777;SDS011;11050;52.222;20.916;2023-05-17T02:51:19;20.63;;;17.70;;
21777;SDS011;11050;52.222;20.916;2023-05-17T02:53:45;21.20;;;18.17;;
21777;SDS011;11050;52.222;20.916;2023-05-17T02:56:11;21.63;;;19.10;;
21777;SDS011;11050;52.222;20.916;2023-05-17T02:58:36;19.98;;;17.15;;
21777;SDS011;11050;52.222;20.916;2023-05-17T03:01:03;18.92;;;16.30;;
21777;SDS011;11050;52.222;20.916;2023-05-17T03:03:29;20.50;;;17.17;;
21777;SDS011;11050;52.222;20.916;2023-05-17T03:05:58;20.92;;;17.52;;
21777;SDS011;11050;52.222;20.916;2023-05-17T03:08:25;18.65;;;16.55;;
21777;SDS011;11050;52.222;20.916;2023-05-17T03:10:51;19.23;;;16.75;;
21777;SDS011;11050;52.222;20.916;2023-05-17T03:13:17;20.65;;;17.33;;
21777;SDS011;11050;52.222;20.916;2023-05-17T03:15:43;19.65;;;17.55;;
21777;SDS011;11050;52.222;20.916;2023-05-17T03:18:08;21.60;;;18.65;;
21777;SDS011;11050;52.222;20.916;2023-05-17T03:20:34;20.02;;;16.83;;
21777;SDS011;11050;52.222;20.916;2023-05-17T03:22:59;21.08;;;17.63;;
21777;SDS011;11050;52.222;20.916;2023-05-17T03:25:25;21.05;;;18.75;;
21777;SDS011;11050;52.222;20.916;2023-05-17T03:27:51;21.00;;;17.48;;
21777;SDS011;11050;52.222;20.916;2023-05-17T03:30:17;19.02;;;16.73;;
21777;SDS011;11050;52.222;20.916;2023-05-17T03:32:42;19.10;;;16.83;;
21777;SDS011;11050;52.222;20.916;2023-05-17T03:35:09;21.40;;;16.75;;
21777;SDS011;11050;52.222;20.916;2023-05-17T03:37:35;22.20;;;17.58;;
21777;SDS011;11050;52.222;20.916;2023-05-17T03:40:01;21.73;;;16.95;;
21777;SDS011;11050;52.222;20.916;2023-05-17T03:42:27;19.75;;;16.95;;
21777;SDS011;11050;52.222;20.916;2023-05-17T03:44:53;19.73;;;16.65;;
21777;SDS011;11050;52.222;20.916;2023-05-17T03:47:18;21.13;;;17.20;;
21777;SDS011;11050;52.222;20.916;2023-05-17T03:49:47;19.95;;;16.88;;
21777;SDS011;11050;52.222;20.916;2023-05-17T03:52:14;22.60;;;17.00;;
21777;SDS011;11050;52.222;20.916;2023-05-17T03:54:40;17.75;;;15.30;;
21777;SDS011;11050;52.222;20.916;2023-05-17T03:57:05;19.63;;;15.63;;
21777;SDS011;11050;52.222;20.916;2023-05-17T03:59:31;19.08;;;15.57;;
21777;SDS011;11050;52.222;20.916;2023-05-17T04:01:56;19.90;;;15.25;;
21777;SDS011;11050;52.222;20.916;2023-05-17T04:04:22;18.02;;;15.10;;
21777;SDS011;11050;52.222;20.916;2023-05-17T04:06:48;18.08;;;15.98;;
21777;SDS011;11050;52.222;20.916;2023-05-17T04:09:13;18.02;;;14.98;;
21777;SDS011;11050;52.222;20.916;2023-05-17T04:11:40;19.00;;;15.65;;
21777;SDS011;11050;52.222;20.916;2023-05-17T04:14:06;17.23;;;14.80;;
21777;SDS011;11050;52.222;20.916;2023-05-17T04:16:32;17.60;;;15.00;;
21777;SDS011;11050;52.222;20.916;2023-05-17T04:19:01;18.48;;;14.77;;
21777;SDS011;11050;52.222;20.916;2023-05-17T04:21:27;17.52;;;14.48;;
21777;SDS011;11050;52.222;20.916;2023-05-17T04:23:52;17.15;;;14.63;;
21777;SDS011;11050;52.222;20.916;2023-05-17T04:26:18;16.90;;;14.68;;
21777;SDS011;11050;52.222;20.916;2023-05-17T04:28:44;15.52;;;13.88;;
21777;SDS011;11050;52.222;20.916;2023-05-17T04:31:12;15.70;;;14.02;;
21777;SDS011;11050;52.222;20.916;2023-05-17T04:33:40;14.30;;;12.02;;
21777;SDS011;11050;52.222;20.916;2023-05-17T04:36:06;14.35;;;12.82;;
21777;SDS011;11050;52.222;20.916;2023-05-17T04:38:32;14.18;;;12.68;;
21777;SDS011;11050;52.222;20.916;2023-05-17T04:41:02;15.63;;;13.05;;
21777;SDS011;11050;52.222;20.916;2023-05-17T04:43:29;14.05;;;12.60;;
21777;SDS011;11050;52.222;20.916;2023-05-17T04:45:56;14.02;;;12.52;;
21777;SDS011;11050;52.222;20.916;2023-05-17T04:48:24;12.95;;;11.43;;
21777;SDS011;11050;52.222;20.916;2023-05-17T04:50:51;14.63;;;12.70;;
21777;SDS011;11050;52.222;20.916;2023-05-17T04:53:20;18.05;;;12.50;;
21777;SDS011;11050;52.222;20.916;2023-05-17T04:55:45;13.80;;;12.30;;
21777;SDS011;11050;52.222;20.916;2023-05-17T04:58:12;13.15;;;11.63;;
21777;SDS011;11050;52.222;20.916;2023-05-17T05:00:38;14.57;;;11.95;;
21777;SDS011;11050;52.222;20.916;2023-05-17T05:03:04;12.27;;;11.07;;
21777;SDS011;11050;52.222;20.916;2023-05-17T05:05:31;12.35;;;10.65;;
21777;SDS011;11050;52.222;20.916;2023-05-17T05:07:57;14.13;;;11.30;;
21777;SDS011;11050;52.222;20.916;2023-05-17T05:10:23;11.43;;;10.23;;
21777;SDS011;11050;52.222;20.916;2023-05-17T05:12:48;11.10;;;9.85;;
21777;SDS011;11050;52.222;20.916;2023-05-17T05:15:14;11.25;;;10.05;;
21777;SDS011;11050;52.222;20.916;2023-05-17T05:17:40;12.23;;;10.82;;
21777;SDS011;11050;52.222;20.916;2023-05-17T05:20:06;13.05;;;10.57;;
21777;SDS011;11050;52.222;20.916;2023-05-17T05:22:33;11.48;;;10.18;;
21777;SDS011;11050;52.222;20.916;2023-05-17T05:24:59;12.75;;;10.45;;
21777;SDS011;11050;52.222;20.916;2023-05-17T05:27:25;11.80;;;10.40;;
21777;SDS011;11050;52.222;20.916;2023-05-17T05:29:51;12.52;;;11.23;;
21777;SDS011;11050;52.222;20.916;2023-05-17T05:32:17;15.73;;;11.73;;
21777;SDS011;11050;52.222;20.916;2023-05-17T05:34:43;13.50;;;11.95;;
21777;SDS011;11050;52.222;20.916;2023-05-17T05:37:09;12.55;;;10.95;;
21777;SDS011;11050;52.222;20.916;2023-05-17T05:39:34;11.85;;;10.60;;
21777;SDS011;11050;52.222;20.916;2023-05-17T05:42:00;12.52;;;11.00;;
21777;SDS011;11050;52.222;20.916;2023-05-17T05:44:28;12.88;;;10.10;;
21777;SDS011;11050;52.222;20.916;2023-05-17T05:46:55;10.93;;;9.70;;
21777;SDS011;11050;52.222;20.916;2023-05-17T05:49:20;10.77;;;9.68;;
21777;SDS011;11050;52.222;20.916;2023-05-17T05:51:46;12.32;;;9.82;;
21777;SDS011;11050;52.222;20.916;2023-05-17T05:54:12;10.27;;;9.23;;
21777;SDS011;11050;52.222;20.916;2023-05-17T05:56:38;11.07;;;9.68;;
21777;SDS011;11050;52.222;20.916;2023-05-17T05:59:03;9.43;;;8.43;;
21777;SDS011;11050;52.222;20.916;2023-05-17T06:01:30;9.57;;;8.60;;
21777;SDS011;11050;52.222;20.916;2023-05-17T06:03:55;11.07;;;8.95;;
21777;SDS011;11050;52.222;20.916;2023-05-17T06:06:21;9.80;;;8.60;;
21777;SDS011;11050;52.222;20.916;2023-05-17T06:08:47;9.43;;;8.52;;
21777;SDS011;11050;52.222;20.916;2023-05-17T06:11:12;9.02;;;8.13;;
21777;SDS011;11050;52.222;20.916;2023-05-17T06:13:38;9.18;;;8.27;;
21777;SDS011;11050;52.222;20.916;2023-05-17T06:16:04;9.50;;;8.60;;
21777;SDS011;11050;52.222;20.916;2023-05-17T06:18:31;8.95;;;8.02;;
21777;SDS011;11050;52.222;20.916;2023-05-17T06:20:57;9.25;;;8.35;;
21777;SDS011;11050;52.222;20.916;2023-05-17T06:23:23;9.32;;;8.43;;
21777;SDS011;11050;52.222;20.916;2023-05-17T06:25:48;9.63;;;8.43;;
21777;SDS011;11050;52.222;20.916;2023-05-17T06:28:16;8.88;;;8.07;;
21777;SDS011;11050;52.222;20.916;2023-05-17T06:30:42;10.50;;;8.55;;
21777;SDS011;11050;52.222;20.916;2023-05-17T06:33:08;9.70;;;8.50;;
21777;SDS011;11050;52.222;20.916;2023-05-17T06:35:34;9.57;;;8.38;;
21777;SDS011;11050;52.222;20.916;2023-05-17T06:38:00;9.55;;;8.55;;
21777;SDS011;11050;52.222;20.916;2023-05-17T06:40:26;9.52;;;8.63;;
21777;SDS011;11050;52.222;20.916;2023-05-17T06:42:52;8.80;;;8.00;;
21777;SDS011;11050;52.222;20.916;2023-05-17T06:45:17;10.23;;;8.77;;
21777;SDS011;11050;52.222;20.916;2023-05-17T06:47:43;11.52;;;9.77;;
21777;SDS011;11050;52.222;20.916;2023-05-17T06:50:09;10.88;;;8.82;;
21777;SDS011;11050;52.222;20.916;2023-05-17T06:52:35;9.77;;;8.77;;
21777;SDS011;11050;52.222;20.916;2023-05-17T06:55:01;10.23;;;9.15;;
21777;SDS011;11050;52.222;20.916;2023-05-17T06:57:26;11.25;;;9.23;;
21777;SDS011;11050;52.222;20.916;2023-05-17T06:59:52;10.88;;;9.30;;
21777;SDS011;11050;52.222;20.916;2023-05-17T07:02:18;10.27;;;9.05;;
21777;SDS011;11050;52.222;20.916;2023-05-17T07:04:44;11.98;;;9.65;;
21777;SDS011;11050;52.222;20.916;2023-05-17T07:07:10;11.93;;;9.40;;
21777;SDS011;11050;52.222;20.916;2023-05-17T07:09:36;10.55;;;9.55;;
21777;SDS011;11050;52.222;20.916;2023-05-17T07:12:03;11.80;;;9.00;;
21777;SDS011;11050;52.222;20.916;2023-05-17T07:14:29;10.40;;;9.30;;
21777;SDS011;11050;52.222;20.916;2023-05-17T07:16:57;12.57;;;9.98;;
21777;SDS011;11050;52.222;20.916;2023-05-17T07:19:23;11.20;;;10.00;;
21777;SDS011;11050;52.222;20.916;2023-05-17T07:21:50;11.45;;;9.25;;
21777;SDS011;11050;52.222;20.916;2023-05-17T07:24:16;11.93;;;9.95;;
21777;SDS011;11050;52.222;20.916;2023-05-17T07:26:42;12.63;;;9.52;;
21777;SDS011;11050;52.222;20.916;2023-05-17T07:29:08;10.15;;;8.40;;
21777;SDS011;11050;52.222;20.916;2023-05-17T07:31:34;12.00;;;9.27;;
21777;SDS011;11050;52.222;20.916;2023-05-17T07:34:00;10.98;;;9.23;;
21777;SDS011;11050;52.222;20.916;2023-05-17T07:36:25;9.68;;;8.68;;
21777;SDS011;11050;52.222;20.916;2023-05-17T07:38:54;10.20;;;8.95;;
21777;SDS011;11050;52.222;20.916;2023-05-17T07:41:21;9.00;;;8.10;;
21777;SDS011;11050;52.222;20.916;2023-05-17T07:43:47;10.10;;;8.82;;
21777;SDS011;11050;52.222;20.916;2023-05-17T07:46:14;10.60;;;8.63;;
21777;SDS011;11050;52.222;20.916;2023-05-17T07:48:39;9.98;;;8.57;;
21777;SDS011;11050;52.222;20.916;2023-05-17T07:51:05;9.77;;;8.63;;
21777;SDS011;11050;52.222;20.916;2023-05-17T07:53:31;10.48;;;9.27;;
21777;SDS011;11050;52.222;20.916;2023-05-17T07:55:56;12.05;;;8.93;;
21777;SDS011;11050;52.222;20.916;2023-05-17T07:58:22;12.60;;;8.70;;
21777;SDS011;11050;52.222;20.916;2023-05-17T08:00:48;9.55;;;8.27;;
21777;SDS011;11050;52.222;20.916;2023-05-17T08:03:14;10.10;;;8.02;;
21777;SDS011;11050;52.222;20.916;2023-05-17T08:05:40;8.27;;;7.47;;
21777;SDS011;11050;52.222;20.916;2023-05-17T08:08:05;8.55;;;7.75;;
21777;SDS011;11050;52.222;20.916;2023-05-17T08:10:32;8.25;;;7.45;;
21777;SDS011;11050;52.222;20.916;2023-05-17T08:13:01;7.10;;;6.40;;
21777;SDS011;11050;52.222;20.916;2023-05-17T08:15:28;7.57;;;6.85;;
21777;SDS011;11050;52.222;20.916;2023-05-17T08:17:54;7.57;;;6.88;;
21777;SDS011;11050;52.222;20.916;2023-05-17T08:20:20;7.55;;;6.85;;
21777;SDS011;11050;52.222;20.916;2023-05-17T08:22:46;7.20;;;6.50;;
21777;SDS011;11050;52.222;20.916;2023-05-17T08:25:12;7.18;;;6.35;;
21777;SDS011;11050;52.222;20.916;2023-05-17T08:27:38;7.38;;;6.68;;
21777;SDS011;11050;52.222;20.916;2023-05-17T08:30:04;7.40;;;6.43;;
21777;SDS011;11050;52.222;20.916;2023-05-17T08:32:31;6.75;;;6.13;;
21777;SDS011;11050;52.222;20.916;2023-05-17T08:34:56;6.00;;;5.40;;
21777;SDS011;11050;52.222;20.916;2023-05-17T08:37:22;5.80;;;5.30;;
21777;SDS011;11050;52.222;20.916;2023-05-17T08:39:48;7.53;;;6.15;;
21777;SDS011;11050;52.222;20.916;2023-05-17T08:42:16;6.57;;;5.50;;
21777;SDS011;11050;52.222;20.916;2023-05-17T08:44:49;5.75;;;5.03;;
21777;SDS011;11050;52.222;20.916;2023-05-17T08:47:17;7.75;;;5.07;;
21777;SDS011;11050;52.222;20.916;2023-05-17T08:49:56;5.10;;;4.68;;
21777;SDS011;11050;52.222;20.916;2023-05-17T08:52:29;5.80;;;5.30;;
21777;SDS011;11050;52.222;20.916;2023-05-17T08:54:58;5.68;;;5.18;;
21777;SDS011;11050;52.222;20.916;2023-05-17T08:57:32;6.03;;;5.40;;
21777;SDS011;11050;52.222;20.916;2023-05-17T09:00:01;5.82;;;5.32;;
21777;SDS011;11050;52.222;20.916;2023-05-17T09:02:36;6.35;;;5.75;;
21777;SDS011;11050;52.222;20.916;2023-05-17T09:05:04;6.35;;;5.72;;
21777;SDS011;11050;52.222;20.916;2023-05-17T09:07:30;6.47;;;5.90;;
21777;SDS011;11050;52.222;20.916;2023-05-17T09:09:56;7.70;;;6.85;;
21777;SDS011;11050;52.222;20.916;2023-05-17T09:12:22;7.07;;;6.38;;
21777;SDS011;11050;52.222;20.916;2023-05-17T09:14:48;8.40;;;7.57;;
21777;SDS011;11050;52.222;20.916;2023-05-17T09:17:18;8.35;;;7.40;;
21777;SDS011;11050;52.222;20.916;2023-05-17T09:19:46;8.10;;;7.38;;
21777;SDS011;11050;52.222;20.916;2023-05-17T09:22:14;7.53;;;6.68;;
21777;SDS011;11050;52.222;20.916;2023-05-17T09:24:43;8.50;;;7.10;;
21777;SDS011;11050;52.222;20.916;2023-05-17T09:27:16;7.57;;;6.78;;
21777;SDS011;11050;52.222;20.916;2023-05-17T09:29:45;7.82;;;7.13;;
21777;SDS011;11050;52.222;20.916;2023-05-17T09:32:16;9.82;;;7.80;;
21777;SDS011;11050;52.222;20.916;2023-05-17T09:34:44;8.60;;;7.22;;
21777;SDS011;11050;52.222;20.916;2023-05-17T09:37:13;9.68;;;8.30;;
21777;SDS011;11050;52.222;20.916;2023-05-17T09:39:41;9.20;;;8.20;;
21777;SDS011;11050;52.222;20.916;2023-05-17T09:42:11;11.05;;;8.38;;
21777;SDS011;11050;52.222;20.916;2023-05-17T09:44:52;11.90;;;9.05;;
21777;SDS011;11050;52.222;20.916;2023-05-17T09:47:30;10.80;;;9.00;;
21777;SDS011;11050;52.222;20.916;2023-05-17T09:50:01;9.90;;;8.45;;
21777;SDS011;11050;52.222;20.916;2023-05-17T09:52:27;12.43;;;8.88;;
21777;SDS011;11050;52.222;20.916;2023-05-17T09:54:57;10.82;;;8.88;;
21777;SDS011;11050;52.222;20.916;2023-05-17T09:57:27;10.80;;;9.35;;
21777;SDS011;11050;52.222;20.916;2023-05-17T10:00:02;11.45;;;8.85;;
21777;SDS011;11050;52.222;20.916;2023-05-17T10:02:37;10.70;;;9.38;;
21777;SDS011;11050;52.222;20.916;2023-05-17T10:05:08;10.00;;;8.95;;
21777;SDS011;11050;52.222;20.916;2023-05-17T10:07:37;11.68;;;9.35;;
21777;SDS011;11050;52.222;20.916;2023-05-17T10:10:05;9.82;;;8.23;;
21777;SDS011;11050;52.222;20.916;2023-05-17T10:12:32;10.73;;;9.68;;
21777;SDS011;11050;52.222;20.916;2023-05-17T10:15:00;12.45;;;9.18;;
21777;SDS011;11050;52.222;20.916;2023-05-17T10:17:26;20.75;;;10.07;;
21777;SDS011;11050;52.222;20.916;2023-05-17T10:19:54;12.35;;;9.45;;
21777;SDS011;11050;52.222;20.916;2023-05-17T10:22:20;11.85;;;8.95;;
21777;SDS011;11050;52.222;20.916;2023-05-17T10:24:47;10.68;;;8.70;;
21777;SDS011;11050;52.222;20.916;2023-05-17T10:27:15;11.88;;;9.50;;
21777;SDS011;11050;52.222;20.916;2023-05-17T10:29:42;14.50;;;9.20;;
21777;SDS011;11050;52.222;20.916;2023-05-17T10:32:09;15.18;;;9.52;;
21777;SDS011;11050;52.222;20.916;2023-05-17T10:34:38;15.00;;;9.93;;
21777;SDS011;11050;52.222;20.916;2023-05-17T10:37:04;11.35;;;8.73;;
21777;SDS011;11050;52.222;20.916;2023-05-17T10:39:31;13.80;;;9.93;;
21777;SDS011;11050;52.222;20.916;2023-05-17T10:42:02;16.00;;;10.93;;
21777;SDS011;11050;52.222;20.916;2023-05-17T10:44:32;15.80;;;10.02;;
21777;SDS011;11050;52.222;20.916;2023-05-17T10:46:59;11.45;;;8.52;;
21777;SDS011;11050;52.222;20.916;2023-05-17T10:49:28;10.18;;;7.90;;
21777;SDS011;11050;52.222;20.916;2023-05-17T10:52:19;15.10;;;8.50;;
21777;SDS011;11050;52.222;20.916;2023-05-17T10:54:47;11.38;;;8.15;;
21777;SDS011;11050;52.222;20.916;2023-05-17T10:57:20;10.68;;;8.15;;
21777;SDS011;11050;52.222;20.916;2023-05-17T10:59:58;12.02;;;8.10;;
21777;SDS011;11050;52.222;20.916;2023-05-17T11:02:29;9.38;;;7.78;;
21777;SDS011;11050;52.222;20.916;2023-05-17T11:04:56;12.70;;;7.40;;
21777;SDS011;11050;52.222;20.916;2023-05-17T11:07:24;11.82;;;7.78;;
21777;SDS011;11050;52.222;20.916;2023-05-17T11:12:31;10.95;;;7.78;;
21777;SDS011;11050;52.222;20.916;2023-05-17T11:22:40;10.88;;;7.30;;
21777;SDS011;11050;52.222;20.916;2023-05-17T11:28:08;8.65;;;5.88;;
21777;SDS011;11050;52.222;20.916;2023-05-17T11:30:42;8.85;;;5.68;;
21777;SDS011;11050;52.222;20.916;2023-05-17T11:33:15;7.93;;;5.53;;
21777;SDS011;11050;52.222;20.916;2023-05-17T11:35:41;9.60;;;5.65;;
21777;SDS011;11050;52.222;20.916;2023-05-17T11:40:54;9.95;;;5.85;;
21777;SDS011;11050;52.222;20.916;2023-05-17T11:43:24;13.38;;;5.75;;
21777;SDS011;11050;52.222;20.916;2023-05-17T11:45:55;9.80;;;5.47;;
21777;SDS011;11050;52.222;20.916;2023-05-17T11:48:25;11.40;;;6.32;;
21777;SDS011;11050;52.222;20.916;2023-05-17T11:50:54;11.43;;;6.15;;
21777;SDS011;11050;52.222;20.916;2023-05-17T11:53:20;14.05;;;6.60;;
21777;SDS011;11050;52.222;20.916;2023-05-17T11:55:49;11.10;;;5.82;;
21777;SDS011;11050;52.222;20.916;2023-05-17T11:58:19;13.93;;;6.70;;
21777;SDS011;11050;52.222;20.916;2023-05-17T12:00:55;11.07;;;6.35;;
21777;SDS011;11050;52.222;20.916;2023-05-17T12:03:29;12.20;;;6.53;;
21777;SDS011;11050;52.222;20.916;2023-05-17T12:06:07;9.80;;;6.18;;
21777;SDS011;11050;52.222;20.916;2023-05-17T12:08:44;8.90;;;5.88;;
21777;SDS011;11050;52.222;20.916;2023-05-17T12:11:12;10.52;;;6.43;;
21777;SDS011;11050;52.222;20.916;2023-05-17T12:13:40;14.48;;;7.25;;
21777;SDS011;11050;52.222;20.916;2023-05-17T12:16:10;11.90;;;6.65;;
21777;SDS011;11050;52.222;20.916;2023-05-17T12:18:42;12.15;;;6.47;;
21777;SDS011;11050;52.222;20.916;2023-05-17T12:21:12;11.50;;;6.80;;
21777;SDS011;11050;52.222;20.916;2023-05-17T12:23:40;13.60;;;7.13;;
21777;SDS011;11050;52.222;20.916;2023-05-17T12:26:11;11.75;;;6.90;;
21777;SDS011;11050;52.222;20.916;2023-05-17T12:28:58;11.23;;;6.93;;
21777;SDS011;11050;52.222;20.916;2023-05-17T12:33:57;13.23;;;6.65;;
21777;SDS011;11050;52.222;20.916;2023-05-17T12:36:26;10.55;;;7.03;;
21777;SDS011;11050;52.222;20.916;2023-05-17T12:38:54;13.07;;;6.40;;
21777;SDS011;11050;52.222;20.916;2023-05-17T12:41:21;9.38;;;6.20;;
21777;SDS011;11050;52.222;20.916;2023-05-17T12:43:50;14.18;;;6.80;;
21777;SDS011;11050;52.222;20.916;2023-05-17T12:46:16;14.65;;;7.30;;
21777;SDS011;11050;52.222;20.916;2023-05-17T12:48:44;17.13;;;7.90;;
21777;SDS011;11050;52.222;20.916;2023-05-17T12:51:12;13.38;;;7.70;;
21777;SDS011;11050;52.222;20.916;2023-05-17T12:59:03;12.30;;;7.43;;
21777;SDS011;11050;52.222;20.916;2023-05-17T13:01:38;15.13;;;7.75;;
21777;SDS011;11050;52.222;20.916;2023-05-17T13:04:13;13.43;;;8.02;;
21777;SDS011;11050;52.222;20.916;2023-05-17T13:06:46;14.63;;;9.02;;
21777;SDS011;11050;52.222;20.916;2023-05-17T13:09:17;13.07;;;8.00;;
21777;SDS011;11050;52.222;20.916;2023-05-17T13:14:40;14.18;;;8.20;;
21777;SDS011;11050;52.222;20.916;2023-05-17T13:17:13;10.88;;;9.05;;
21777;SDS011;11050;52.222;20.916;2023-05-17T13:19:59;13.57;;;8.45;;
21777;SDS011;11050;52.222;20.916;2023-05-17T13:22:25;13.02;;;8.43;;
21777;SDS011;11050;52.222;20.916;2023-05-17T13:24:51;13.90;;;8.85;;
21777;SDS011;11050;52.222;20.916;2023-05-17T13:27:17;16.00;;;8.65;;
21777;SDS011;11050;52.222;20.916;2023-05-17T13:29:43;19.73;;;9.68;;
21777;SDS011;11050;52.222;20.916;2023-05-17T13:32:10;15.23;;;8.80;;
21777;SDS011;11050;52.222;20.916;2023-05-17T13:34:37;12.30;;;8.40;;
21777;SDS011;11050;52.222;20.916;2023-05-17T13:37:04;13.57;;;8.40;;
21777;SDS011;11050;52.222;20.916;2023-05-17T13:39:31;18.52;;;9.27;;
21777;SDS011;11050;52.222;20.916;2023-05-17T13:41:57;14.80;;;8.80;;
21777;SDS011;11050;52.222;20.916;2023-05-17T13:44:23;13.32;;;9.55;;
21777;SDS011;11050;52.222;20.916;2023-05-17T13:46:49;11.32;;;9.05;;
21777;SDS011;11050;52.222;20.916;2023-05-17T13:49:15;14.82;;;9.57;;
21777;SDS011;11050;52.222;20.916;2023-05-17T13:51:41;12.80;;;9.05;;
21777;SDS011;11050;52.222;20.916;2023-05-17T13:54:07;16.50;;;9.38;;
21777;SDS011;11050;52.222;20.916;2023-05-17T13:56:34;11.23;;;9.43;;
21777;SDS011;11050;52.222;20.916;2023-05-17T13:59:00;12.88;;;9.02;;
21777;SDS011;11050;52.222;20.916;2023-05-17T14:01:26;12.20;;;7.93;;
21777;SDS011;11050;52.222;20.916;2023-05-17T14:03:51;13.40;;;8.20;;
21777;SDS011;11050;52.222;20.916;2023-05-17T14:06:18;13.65;;;7.75;;
21777;SDS011;11050;52.222;20.916;2023-05-17T14:08:44;16.35;;;7.70;;
21777;SDS011;11050;52.222;20.916;2023-05-17T14:11:10;10.90;;;7.72;;
21777;SDS011;11050;52.222;20.916;2023-05-17T14:13:36;10.73;;;7.00;;
21777;SDS011;11050;52.222;20.916;2023-05-17T14:16:02;14.65;;;8.20;;
21777;SDS011;11050;52.222;20.916;2023-05-17T14:18:28;10.20;;;8.45;;
21777;SDS011;11050;52.222;20.916;2023-05-17T14:20:55;13.20;;;8.63;;
21777;SDS011;11050;52.222;20.916;2023-05-17T14:23:20;13.43;;;7.80;;
21777;SDS011;11050;52.222;20.916;2023-05-17T14:25:46;11.60;;;8.27;;
21777;SDS011;11050;52.222;20.916;2023-05-17T14:28:13;12.75;;;8.02;;
21777;SDS011;11050;52.222;20.916;2023-05-17T14:30:41;11.15;;;7.97;;
21777;SDS011;11050;52.222;20.916;2023-05-17T14:33:07;11.93;;;7.50;;
21777;SDS011;11050;52.222;20.916;2023-05-17T14:35:33;12.05;;;7.25;;
21777;SDS011;11050;52.222;20.916;2023-05-17T14:37:59;9.20;;;7.80;;
21777;SDS011;11050;52.222;20.916;2023-05-17T14:40:25;13.85;;;7.38;;
21777;SDS011;11050;52.222;20.916;2023-05-17T14:42:51;16.63;;;7.60;;
21777;SDS011;11050;52.222;20.916;2023-05-17T14:45:33;10.22;;;7.00;;
21777;SDS011;11050;52.222;20.916;2023-05-17T14:47:58;10.65;;;7.20;;
21777;SDS011;11050;52.222;20.916;2023-05-17T14:50:24;11.13;;;6.50;;
21777;SDS011;11050;52.222;20.916;2023-05-17T14:52:50;11.10;;;6.82;;
21777;SDS011;11050;52.222;20.916;2023-05-17T14:55:16;13.30;;;6.20;;
21777;SDS011;11050;52.222;20.916;2023-05-17T14:57:42;11.27;;;6.15;;
21777;SDS011;11050;52.222;20.916;2023-05-17T15:00:08;8.48;;;6.30;;
21777;SDS011;11050;52.222;20.916;2023-05-17T15:02:35;10.52;;;5.93;;
21777;SDS011;11050;52.222;20.916;2023-05-17T15:05:01;12.45;;;5.85;;